createdAt,value
2018-06-30T00:00:42.798Z,72.07
2018-06-30T00:03:12.854Z,72.66
2018-06-30T00:05:43.107Z,72.74
2018-06-30T00:08:13.299Z,72.39
2018-06-30T00:10:43.331Z,72.20
2018-06-30T00:13:13.497Z,72.51
2018-06-30T00:15:43.539Z,72.32
2018-06-30T00:18:13.613Z,72.53
2018-06-30T00:20:43.641Z,72.42
2018-06-30T00:23:13.673Z,72.80
2018-06-30T00:25:43.685Z,72.63
2018-06-30T00:28:13.801Z,72.10
2018-06-30T00:30:43.865Z,72.13
2018-06-30T00:33:13.501Z,72.35
2018-06-30T00:35:43.546Z,72.86
2018-06-30T00:38:13.641Z,72.79
2018-06-30T00:40:43.617Z,72.68
2018-06-30T00:43:13.695Z,72.41
2018-06-30T00:45:43.753Z,72.30
2018-06-30T00:48:13.901Z,72.80
2018-06-30T00:50:44.291Z,72.69
2018-06-30T00:53:14.491Z,72.91
2018-06-30T00:55:44.547Z,73.00
2018-06-30T00:58:14.604Z,72.86
2018-06-30T01:00:44.651Z,73.05
2018-06-30T01:03:14.774Z,72.74
2018-06-30T01:05:44.405Z,72.49
2018-06-30T01:08:14.459Z,72.82
2018-06-30T01:10:45.366Z,72.76
2018-06-30T01:13:15.402Z,72.34
2018-06-30T01:15:45.415Z,72.41
2018-06-30T01:18:15.446Z,72.77
2018-06-30T01:20:45.476Z,72.85
2018-06-30T01:23:15.626Z,73.01
2018-06-30T01:25:45.643Z,72.68
2018-06-30T01:28:15.683Z,72.94
2018-06-30T01:30:45.689Z,72.94
2018-06-30T01:33:15.696Z,73.01
2018-06-30T01:35:45.739Z,72.83
2018-06-30T01:38:15.790Z,73.15
2018-06-30T01:40:45.827Z,72.72
2018-06-30T01:43:15.856Z,72.91
2018-06-30T01:45:45.891Z,72.78
2018-06-30T01:48:15.892Z,72.98
2018-06-30T01:50:45.919Z,72.44
2018-06-30T01:53:15.975Z,72.35
2018-06-30T01:55:46.142Z,72.56
2018-06-30T01:58:16.173Z,72.84
2018-06-30T02:00:46.194Z,72.61
2018-06-30T02:03:16.223Z,73.00
2018-06-30T02:05:46.256Z,72.58
2018-06-30T02:08:16.524Z,72.46
2018-06-30T02:10:46.562Z,72.48
2018-06-30T02:13:16.645Z,72.56
2018-06-30T02:15:46.678Z,72.67
2018-06-30T02:18:16.734Z,72.75
2018-06-30T02:20:46.754Z,73.17
2018-06-30T02:23:16.888Z,73.08
2018-06-30T02:25:46.900Z,73.03
2018-06-30T02:28:16.930Z,73.14
2018-06-30T02:30:47.011Z,73.05
2018-06-30T02:33:17.027Z,72.50
2018-06-30T02:35:47.056Z,73.04
2018-06-30T02:38:16.640Z,72.87
2018-06-30T02:40:46.850Z,73.05
2018-06-30T02:43:16.836Z,72.80
2018-06-30T02:45:46.903Z,73.12
2018-06-30T02:48:16.921Z,73.56
2018-06-30T02:50:46.987Z,73.35
2018-06-30T02:53:17.004Z,73.41
2018-06-30T02:55:47.043Z,74.09
2018-06-30T02:58:17.096Z,74.35
2018-06-30T03:00:47.221Z,73.74
2018-06-30T03:03:17.234Z,73.41
2018-06-30T03:05:47.268Z,73.55
2018-06-30T03:08:17.382Z,73.43
2018-06-30T03:10:47.502Z,73.70
2018-06-30T03:13:17.584Z,73.82
2018-06-30T03:15:47.664Z,74.10
2018-06-30T03:18:17.749Z,74.46
2018-06-30T03:20:47.786Z,74.52
2018-06-30T03:23:17.843Z,74.02
2018-06-30T03:25:47.573Z,74.16
2018-06-30T03:28:17.606Z,74.23
2018-06-30T03:30:47.752Z,74.02
2018-06-30T03:33:17.765Z,74.37
2018-06-30T03:35:47.812Z,74.40
2018-06-30T03:38:17.841Z,74.56
2018-06-30T03:40:47.925Z,74.56
2018-06-30T03:43:17.957Z,74.40
2018-06-30T03:45:48.031Z,74.81
2018-06-30T03:48:18.040Z,74.73
2018-06-30T03:50:48.105Z,75.37
2018-06-30T03:53:18.122Z,75.58
2018-06-30T03:55:48.274Z,75.27
2018-06-30T03:58:18.287Z,75.47
2018-06-30T04:00:48.318Z,75.72
2018-06-30T04:03:18.527Z,75.89
2018-06-30T04:05:48.576Z,75.79
2018-06-30T04:08:18.635Z,76.00
2018-06-30T04:10:48.695Z,76.40
2018-06-30T04:13:18.729Z,76.52
2018-06-30T04:15:48.834Z,76.44
2018-06-30T04:18:18.856Z,76.76
2018-06-30T04:20:48.939Z,76.62
2018-06-30T04:23:18.957Z,76.86
2018-06-30T04:25:48.564Z,77.01
2018-06-30T04:28:18.594Z,77.03
2018-06-30T04:30:48.639Z,76.65
2018-06-30T04:33:18.642Z,76.32
2018-06-30T04:35:48.656Z,76.76
2018-06-30T04:38:18.709Z,76.05
2018-06-30T04:40:48.807Z,76.21
2018-06-30T04:43:18.839Z,75.55
2018-06-30T04:45:48.936Z,75.21
2018-06-30T04:48:19.022Z,74.74
2018-06-30T04:50:49.081Z,73.52
2018-06-30T04:53:19.080Z,72.34
2018-06-30T04:55:49.117Z,70.70
2018-06-30T04:58:19.366Z,70.23
2018-06-30T05:00:49.392Z,69.33
2018-06-30T05:03:18.996Z,69.04
2018-06-30T05:05:49.053Z,69.50
2018-06-30T05:08:19.221Z,67.58
2018-06-30T05:10:49.259Z,67.24
2018-06-30T05:13:18.886Z,65.18
2018-06-30T05:15:48.963Z,64.08
2018-06-30T05:18:19.011Z,63.29
2018-06-30T05:20:49.080Z,60.82
2018-06-30T05:23:19.074Z,61.32
2018-06-30T05:25:49.142Z,60.47
2018-06-30T05:28:19.202Z,59.51
2018-06-30T05:30:49.222Z,59.12
2018-06-30T05:33:18.970Z,58.84
2018-06-30T05:35:48.925Z,59.50
2018-06-30T05:38:19.006Z,59.29
2018-06-30T05:40:49.379Z,58.16
2018-06-30T05:43:19.526Z,57.57
2018-06-30T05:45:49.164Z,56.62
2018-06-30T05:48:19.225Z,55.53
2018-06-30T05:50:49.286Z,56.04
2018-06-30T05:53:19.064Z,55.83
2018-06-30T05:55:49.049Z,54.78
2018-06-30T05:58:19.108Z,56.01
2018-06-30T06:00:49.208Z,55.58
2018-06-30T06:03:19.287Z,55.27
2018-06-30T06:05:48.926Z,55.45
2018-06-30T06:08:19.223Z,53.53
2018-06-30T06:10:48.837Z,52.87
2018-06-30T06:13:18.521Z,51.32
2018-06-30T06:15:48.604Z,53.42
2018-06-30T06:18:18.678Z,52.02
2018-06-30T06:20:48.714Z,51.68
2018-06-30T06:23:18.806Z,50.31
2018-06-30T06:25:48.841Z,51.16
2018-06-30T06:28:18.547Z,51.85
2018-06-30T06:30:48.610Z,54.81
2018-06-30T06:33:18.684Z,53.37
2018-06-30T06:35:48.763Z,53.34
2018-06-30T06:38:18.833Z,56.07
2018-06-30T06:40:49.406Z,55.11
2018-06-30T06:43:20.500Z,56.06
2018-06-30T06:45:50.647Z,55.29
2018-06-30T06:48:20.761Z,54.49
2018-06-30T06:50:51.683Z,51.71
2018-06-30T06:53:22.159Z,50.90
2018-06-30T06:55:52.255Z,51.77
2018-06-30T06:58:22.362Z,50.63
2018-06-30T07:00:52.480Z,51.72
2018-06-30T07:03:22.594Z,51.06
2018-06-30T07:05:52.707Z,50.75
2018-06-30T07:08:23.064Z,51.11
2018-06-30T07:10:53.226Z,51.74
2018-06-30T07:13:23.360Z,51.97
2018-06-30T07:15:53.432Z,52.40
2018-06-30T07:18:23.552Z,52.15
2018-06-30T07:20:53.646Z,50.76
2018-06-30T07:23:23.767Z,50.59
2018-06-30T07:25:53.953Z,49.38
2018-06-30T07:28:24.059Z,50.11
2018-06-30T07:30:54.233Z,51.24
2018-06-30T07:33:24.389Z,49.92
2018-06-30T07:35:54.506Z,49.26
2018-06-30T07:38:24.631Z,48.87
2018-06-30T07:40:54.791Z,50.01
2018-06-30T07:43:25.151Z,51.28
2018-06-30T07:45:55.191Z,49.39
2018-06-30T07:48:25.331Z,50.77
2018-06-30T07:50:56.306Z,52.11
2018-06-30T07:53:26.387Z,49.86
2018-06-30T07:55:56.471Z,48.83
2018-06-30T07:58:26.595Z,49.13
2018-06-30T08:00:56.783Z,52.62
2018-06-30T08:03:26.883Z,49.92
2018-06-30T08:05:56.994Z,47.77
2018-06-30T08:08:27.118Z,48.16
2018-06-30T08:10:57.211Z,48.74
2018-06-30T08:13:27.318Z,49.73
2018-06-30T08:15:57.397Z,47.84
2018-06-30T08:18:27.552Z,48.66
2018-06-30T08:20:57.707Z,50.95
2018-06-30T08:23:27.905Z,49.82
2018-06-30T08:25:58.006Z,48.37
2018-06-30T08:28:28.150Z,48.01
2018-06-30T08:30:58.227Z,49.31
2018-06-30T08:33:28.439Z,46.38
2018-06-30T08:35:58.547Z,46.86
2018-06-30T08:38:28.667Z,48.93
2018-06-30T08:40:58.808Z,47.80
2018-06-30T08:43:28.941Z,48.65
2018-06-30T08:45:59.042Z,48.81
2018-06-30T08:48:29.152Z,49.63
2018-06-30T08:50:58.907Z,46.74
2018-06-30T08:53:28.954Z,45.85
2018-06-30T08:55:59.111Z,47.82
2018-06-30T08:58:28.755Z,46.56
2018-06-30T09:00:58.864Z,47.44
2018-06-30T09:03:29.012Z,46.42
2018-06-30T09:05:58.651Z,47.86
2018-06-30T09:08:28.862Z,49.08
2018-06-30T09:10:59.006Z,46.81
2018-06-30T09:13:29.080Z,48.75
2018-06-30T09:15:59.153Z,47.41
2018-06-30T09:18:29.174Z,50.90
2018-06-30T09:20:59.343Z,48.21
2018-06-30T09:23:29.399Z,47.83
2018-06-30T09:25:59.506Z,44.20
2018-06-30T09:28:29.603Z,48.76
2018-06-30T09:30:59.657Z,45.95
2018-06-30T09:33:29.740Z,46.28
2018-06-30T09:36:00.013Z,49.99
2018-06-30T09:38:30.098Z,47.64
2018-06-30T09:41:00.217Z,47.14
2018-06-30T09:43:30.327Z,46.08
2018-06-30T09:46:00.470Z,47.19
2018-06-30T09:48:30.564Z,47.24
2018-06-30T09:51:00.694Z,47.46
2018-06-30T09:53:30.820Z,47.64
2018-06-30T09:56:00.517Z,43.29
2018-06-30T09:58:30.527Z,46.71
2018-06-30T10:01:05.617Z,46.60
2018-06-30T10:03:36.308Z,44.47
2018-06-30T10:06:06.845Z,45.90
2018-06-30T10:08:36.563Z,44.08
2018-06-30T10:11:06.767Z,43.90
2018-06-30T10:13:36.842Z,44.37
2018-06-30T10:16:07.074Z,43.99
2018-06-30T10:18:37.140Z,42.93
2018-06-30T10:21:07.302Z,43.60
2018-06-30T10:23:37.365Z,41.83
2018-06-30T10:26:07.611Z,44.97
2018-06-30T10:28:37.702Z,43.21
2018-06-30T10:31:07.822Z,42.45
2018-06-30T10:33:37.885Z,38.74
2018-06-30T10:36:07.985Z,36.87
2018-06-30T10:38:38.053Z,41.86
2018-06-30T10:41:08.376Z,41.38
2018-06-30T10:43:38.495Z,42.52
2018-06-30T10:46:08.230Z,40.53
2018-06-30T10:48:38.332Z,38.91
2018-06-30T10:51:08.580Z,41.76
2018-06-30T10:53:39.030Z,38.93
2018-06-30T10:56:09.230Z,38.98
2018-06-30T10:58:39.363Z,41.55
2018-06-30T11:01:09.556Z,37.88
2018-06-30T11:03:39.655Z,39.38
2018-06-30T11:06:09.792Z,38.10
2018-06-30T11:08:39.930Z,35.66
2018-06-30T11:11:09.722Z,39.92
2018-06-30T11:13:39.806Z,36.49
2018-06-30T11:16:09.957Z,36.97
2018-06-30T11:18:40.088Z,37.51
2018-06-30T11:21:10.191Z,36.67
2018-06-30T11:23:40.359Z,39.10
2018-06-30T11:26:10.472Z,36.98
2018-06-30T11:28:40.688Z,36.58
2018-06-30T11:31:10.878Z,32.10
2018-06-30T11:33:41.014Z,36.59
2018-06-30T11:36:11.112Z,33.00
2018-06-30T11:38:41.250Z,32.17
2018-06-30T11:41:11.369Z,33.79
2018-06-30T11:43:41.467Z,34.74
2018-06-30T11:46:12.059Z,33.19
2018-06-30T11:48:42.211Z,33.97
2018-06-30T11:51:12.367Z,35.25
2018-06-30T11:53:42.550Z,33.71
2018-06-30T11:56:13.173Z,32.50
2018-06-30T11:58:43.267Z,35.41
2018-06-30T12:01:13.331Z,34.85
2018-06-30T12:03:43.461Z,34.41
2018-06-30T12:06:13.620Z,33.52
2018-06-30T12:08:43.779Z,33.79
2018-06-30T12:11:13.871Z,36.00
2018-06-30T12:13:44.018Z,34.26
2018-06-30T12:16:14.082Z,34.11
2018-06-30T12:18:44.245Z,34.67
2018-06-30T12:21:14.398Z,35.08
2018-06-30T12:23:44.491Z,35.96
2018-06-30T12:26:14.599Z,35.10
2018-06-30T12:28:44.658Z,34.31
2018-06-30T12:31:14.751Z,32.81
2018-06-30T12:33:45.563Z,33.63
2018-06-30T12:36:15.661Z,32.41
2018-06-30T12:38:45.773Z,35.70
2018-06-30T12:41:15.964Z,33.44
2018-06-30T12:43:46.110Z,33.70
2018-06-30T12:46:18.018Z,33.30
2018-06-30T12:48:48.125Z,33.39
2018-06-30T12:51:18.298Z,34.42
2018-06-30T12:53:48.444Z,33.82
2018-06-30T12:56:18.513Z,34.49
2018-06-30T12:58:48.658Z,32.56
2018-06-30T13:01:18.776Z,34.46
2018-06-30T13:03:49.016Z,34.82
2018-06-30T13:06:19.048Z,33.68
2018-06-30T13:08:49.214Z,36.74
2018-06-30T13:11:19.356Z,33.55
2018-06-30T13:13:49.405Z,37.03
2018-06-30T13:16:19.457Z,33.32
2018-06-30T13:18:49.618Z,30.57
2018-06-30T13:21:19.687Z,31.06
2018-06-30T13:23:49.871Z,31.94
2018-06-30T13:26:19.977Z,34.53
2018-06-30T13:28:49.762Z,34.23
2018-06-30T13:31:19.800Z,36.77
2018-06-30T13:33:49.957Z,35.53
2018-06-30T13:36:20.060Z,33.18
2018-06-30T13:38:50.195Z,33.55
2018-06-30T13:41:20.325Z,34.47
2018-06-30T13:43:50.485Z,33.96
2018-06-30T13:46:20.724Z,34.72
2018-06-30T13:48:50.843Z,33.19
2018-06-30T13:51:21.252Z,31.93
2018-06-30T13:53:51.328Z,33.60
2018-06-30T13:56:21.390Z,32.96
2018-06-30T13:58:51.501Z,31.25
2018-06-30T14:01:21.571Z,32.52
2018-06-30T14:03:51.798Z,33.24
2018-06-30T14:06:22.071Z,29.44
2018-06-30T14:08:52.203Z,32.36
2018-06-30T14:11:22.330Z,32.43
2018-06-30T14:13:52.717Z,30.23
2018-06-30T14:16:22.955Z,30.58
2018-06-30T14:18:53.061Z,34.00
2018-06-30T14:21:23.152Z,32.09
2018-06-30T14:23:53.282Z,33.93
2018-06-30T14:26:23.336Z,32.29
2018-06-30T14:28:53.189Z,32.66
2018-06-30T14:31:23.336Z,34.22
2018-06-30T14:33:53.509Z,31.54
2018-06-30T14:36:23.686Z,30.55
2018-06-30T14:38:53.816Z,30.82
2018-06-30T14:41:23.890Z,31.99
2018-06-30T14:43:54.055Z,31.96
2018-06-30T14:46:24.197Z,31.02
2018-06-30T14:48:54.262Z,31.95
2018-06-30T14:51:24.468Z,32.61
2018-06-30T14:53:54.115Z,32.63
2018-06-30T14:56:24.230Z,35.13
2018-06-30T14:58:54.560Z,34.16
2018-06-30T15:01:24.794Z,33.88
2018-06-30T15:03:54.890Z,33.58
2018-06-30T15:06:25.084Z,32.65
2018-06-30T15:08:55.191Z,34.36
2018-06-30T15:11:25.364Z,34.69
2018-06-30T15:13:55.081Z,32.30
2018-06-30T15:16:24.865Z,34.47
2018-06-30T15:18:55.500Z,32.40
2018-06-30T15:21:25.659Z,33.21
2018-06-30T15:23:55.727Z,32.08
2018-06-30T15:26:25.782Z,32.71
2018-06-30T15:28:55.487Z,32.15
2018-06-30T15:31:25.568Z,32.04
2018-06-30T15:33:55.687Z,33.82
2018-06-30T15:36:25.909Z,33.02
2018-06-30T15:38:56.010Z,35.79
2018-06-30T15:41:26.092Z,34.87
2018-06-30T15:43:56.228Z,36.65
2018-06-30T15:46:26.436Z,35.82
2018-06-30T15:48:56.620Z,35.26
2018-06-30T15:51:27.095Z,35.08
2018-06-30T15:53:57.267Z,34.72
2018-06-30T15:56:27.482Z,35.62
2018-06-30T15:58:57.941Z,36.81
2018-06-30T16:01:27.971Z,36.32
2018-06-30T16:03:58.061Z,35.92
2018-06-30T16:06:27.790Z,34.68
2018-06-30T16:08:57.868Z,35.95
2018-06-30T16:11:27.941Z,36.32
2018-06-30T16:13:58.104Z,35.32
2018-06-30T16:16:30.100Z,36.08
2018-06-30T16:19:00.160Z,37.02
2018-06-30T16:21:30.262Z,38.96
2018-06-30T16:24:00.313Z,37.60
2018-06-30T16:26:30.553Z,37.02
2018-06-30T16:29:00.618Z,37.07
2018-06-30T16:31:30.348Z,37.81
2018-06-30T16:34:00.400Z,38.23
2018-06-30T16:36:30.838Z,38.09
2018-06-30T16:39:01.023Z,38.63
2018-06-30T16:41:31.156Z,39.01
2018-06-30T16:44:01.193Z,38.80
2018-06-30T16:46:31.366Z,38.84
2018-06-30T16:49:01.547Z,38.78
2018-06-30T16:51:32.079Z,39.31
2018-06-30T16:54:02.212Z,39.21
2018-06-30T16:56:32.337Z,39.67
2018-06-30T16:59:02.448Z,38.94
2018-06-30T17:01:32.711Z,40.37
2018-06-30T17:04:02.881Z,39.11
2018-06-30T17:06:32.971Z,39.43
2018-06-30T17:09:03.149Z,40.81
2018-06-30T17:11:33.302Z,40.94
2018-06-30T17:14:03.387Z,40.14
2018-06-30T17:16:33.560Z,40.97
2018-06-30T17:19:03.634Z,40.88
2018-06-30T17:21:34.638Z,40.18
2018-06-30T17:24:05.051Z,41.08
2018-06-30T17:26:35.271Z,40.53
2018-06-30T17:29:05.416Z,41.24
2018-06-30T17:31:35.522Z,41.01
2018-06-30T17:34:05.612Z,40.38
2018-06-30T17:36:35.842Z,40.14
2018-06-30T17:39:09.651Z,40.79
2018-06-30T17:41:40.433Z,40.16
2018-06-30T17:44:10.916Z,40.71
2018-06-30T17:46:41.104Z,39.97
2018-06-30T17:49:11.278Z,40.87
2018-06-30T17:51:41.421Z,41.19
2018-06-30T17:54:11.677Z,40.54
2018-06-30T17:56:41.878Z,40.99
2018-06-30T17:59:12.096Z,41.07
2018-06-30T18:01:44.193Z,41.17
2018-06-30T18:04:14.273Z,40.82
2018-06-30T18:06:44.479Z,40.94
2018-06-30T18:09:14.544Z,41.43
2018-06-30T18:11:44.635Z,41.97
2018-06-30T18:14:15.717Z,40.72
2018-06-30T18:16:45.828Z,41.28
2018-06-30T18:19:15.909Z,41.51
2018-06-30T18:21:45.976Z,41.23
2018-06-30T18:24:16.022Z,41.67
2018-06-30T18:26:46.105Z,41.12
2018-06-30T18:29:16.153Z,41.16
2018-06-30T18:31:46.299Z,41.78
2018-06-30T18:34:16.319Z,42.40
2018-06-30T18:36:46.416Z,41.97
2018-06-30T18:39:16.518Z,41.65
2018-06-30T18:41:46.580Z,42.00
2018-06-30T18:44:16.644Z,42.63
2018-06-30T18:46:46.775Z,42.42
2018-06-30T18:49:16.824Z,42.17
2018-06-30T18:51:47.001Z,42.29
2018-06-30T18:54:17.095Z,42.67
2018-06-30T18:56:47.196Z,43.26
2018-06-30T18:59:17.326Z,42.76
2018-06-30T19:01:47.517Z,42.62
2018-06-30T19:04:17.582Z,42.91
2018-06-30T19:06:47.630Z,42.97
2018-06-30T19:09:17.696Z,43.84
2018-06-30T19:11:47.745Z,43.39
2018-06-30T19:14:17.779Z,43.28
2018-06-30T19:16:47.991Z,42.76
2018-06-30T19:19:18.026Z,43.01
2018-06-30T19:21:48.056Z,42.05
2018-06-30T19:24:18.090Z,42.71
2018-06-30T19:26:48.176Z,43.61
2018-06-30T19:29:18.270Z,43.06
2018-06-30T19:31:48.323Z,43.02
2018-06-30T19:34:18.364Z,42.92
2018-06-30T19:36:48.542Z,43.71
2018-06-30T19:39:18.575Z,43.20
2018-06-30T19:41:49.635Z,40.96
2018-06-30T19:44:19.720Z,41.83
2018-06-30T19:46:49.775Z,43.07
2018-06-30T19:49:19.840Z,42.28
2018-06-30T19:51:49.898Z,42.44
2018-06-30T19:54:19.960Z,41.40
2018-06-30T19:56:49.960Z,41.54
2018-06-30T19:59:20.149Z,41.22
2018-06-30T20:01:50.276Z,40.75
2018-06-30T20:04:20.344Z,41.24
2018-06-30T20:06:50.533Z,38.90
2018-06-30T20:09:20.641Z,38.43
2018-06-30T20:11:50.893Z,37.58
2018-06-30T20:14:20.931Z,36.91
2018-06-30T20:16:51.082Z,37.52
2018-06-30T20:19:21.143Z,37.01
2018-06-30T20:21:51.189Z,37.12
2018-06-30T20:24:21.310Z,36.06
2018-06-30T20:26:51.429Z,35.44
2018-06-30T20:29:21.726Z,36.16
2018-06-30T20:31:51.792Z,36.14
2018-06-30T20:34:21.904Z,36.97
2018-06-30T20:36:52.046Z,34.03
2018-06-30T20:39:22.158Z,34.68
2018-06-30T20:41:52.236Z,35.10
2018-06-30T20:44:22.369Z,34.83
2018-06-30T20:46:52.472Z,34.51
2018-06-30T20:49:22.611Z,35.66
2018-06-30T20:51:52.719Z,33.99
2018-06-30T20:54:22.859Z,33.72
2018-06-30T20:56:52.995Z,33.07
2018-06-30T20:59:23.219Z,34.25
2018-06-30T21:01:53.347Z,34.43
2018-06-30T21:04:23.569Z,33.93
2018-06-30T21:06:53.217Z,33.36
2018-06-30T21:09:23.390Z,34.09
2018-06-30T21:11:53.463Z,33.79
2018-06-30T21:14:23.649Z,33.67
2018-06-30T21:16:53.847Z,33.19
2018-06-30T21:19:23.921Z,33.09
2018-06-30T21:21:54.182Z,33.29
2018-06-30T21:24:24.371Z,33.47
2018-06-30T21:26:54.478Z,33.50
2018-06-30T21:29:24.587Z,33.47
2018-06-30T21:31:54.760Z,34.25
2018-06-30T21:34:25.122Z,33.80
2018-06-30T21:36:55.648Z,33.67
2018-06-30T21:39:25.720Z,33.29
2018-06-30T21:41:55.910Z,33.93
2018-06-30T21:44:26.032Z,32.88
2018-06-30T21:46:56.156Z,32.97
2018-06-30T21:49:26.216Z,32.85
2018-06-30T21:51:56.033Z,33.27
2018-06-30T21:54:26.093Z,34.63
2018-06-30T21:56:56.290Z,31.89
2018-06-30T21:59:26.387Z,32.18
2018-06-30T22:01:56.490Z,31.94
2018-06-30T22:04:26.490Z,31.94
2018-06-30T22:06:56.690Z,31.32
2018-06-30T22:09:26.807Z,31.22
2018-06-30T22:11:56.902Z,31.42
2018-06-30T22:14:27.536Z,32.20
2018-06-30T22:16:57.293Z,32.34
2018-06-30T22:19:27.395Z,32.85
2018-06-30T22:21:57.526Z,31.85
2018-06-30T22:24:27.670Z,31.58
2018-06-30T22:26:57.909Z,32.23
2018-06-30T22:29:28.011Z,30.78
2018-06-30T22:31:58.316Z,31.36
2018-06-30T22:34:28.362Z,32.41
2018-06-30T22:36:58.415Z,31.12
2018-06-30T22:40:37.262Z,31.86
2018-06-30T22:43:07.383Z,31.00
2018-06-30T22:45:37.527Z,33.48
2018-06-30T22:48:07.703Z,33.09
2018-06-30T22:50:37.804Z,33.00
2018-06-30T22:53:07.979Z,32.52
2018-06-30T22:55:38.067Z,32.62
2018-06-30T22:58:08.262Z,32.89
2018-06-30T23:00:38.390Z,33.57
2018-06-30T23:03:11.939Z,34.18
2018-06-30T23:05:42.838Z,33.42
2018-06-30T23:08:13.036Z,34.35
2018-06-30T23:10:43.138Z,33.78
2018-06-30T23:13:13.400Z,34.21
2018-06-30T23:15:43.522Z,33.54
2018-06-30T23:18:13.696Z,34.32
2018-06-30T23:20:43.915Z,34.93
2018-06-30T23:23:14.032Z,34.59
2018-06-30T23:25:44.162Z,34.36
2018-06-30T23:28:14.581Z,35.21
2018-06-30T23:30:44.707Z,35.18
2018-06-30T23:33:14.417Z,35.09
2018-06-30T23:35:44.611Z,35.99
2018-06-30T23:38:14.706Z,35.64
2018-06-30T23:40:44.761Z,35.50
2018-06-30T23:43:14.933Z,35.73
2018-06-30T23:45:45.028Z,35.46
2018-06-30T23:48:15.128Z,35.06
2018-06-30T23:50:45.213Z,36.36
2018-06-30T23:53:15.310Z,36.42
2018-06-30T23:55:45.434Z,36.45
2018-06-30T23:58:15.137Z,36.20
